Αρχική σελίδα
METAR-TAF:

METAR-TAF

Αεροδρόμια :

Pointe-Noire, Κονγκό

γεωγραφικό πλάτος: 04-49S, γεωγραφικό μήκος: 011-54E, υψόμετρο: 17 μ

Παρών καιρός

Η αναφορά έγινε 1 ώρα και 3 λεπτά πριν, στις 02:00 UTC
Ήπιος άνεμος
Θερμοκρασία 21°C
Υγρασία 94%
Πίεση 1012 hPa
Ορατότητα: 3000 μ
Διάσπαρτα νέφη σε ύψος 800 πόδια
Αρκετά νέφη σε ύψος 2000 πόδια
Αχλής

METAR: FCPP 240200Z 00000KT 3000 BR SCT008 BKN020 21/20 Q1012 NOSIG

Χρόνος: 04:03 (03:03 UTC)

Πρόγνωση Καιρού

Η αναφορά έγινε 4 ώρες και 3 λεπτά πριν, στις 23:00 UTC
Η πρόγνωση ισχύει από τις 24 στις 00 UTC έως τις 24 στις 24 UTC
Άνεμος 4 kt από ΝA
Ορατότητα: 3000 μ
Διάσπαρτα νέφη σε ύψος 1000 πόδια
Αχλής
Καθιστάμενος
από 24 στις 06 UTC έως τις 24 στις 08 UTC
Ορατότητα: 7000 μ

TAF: FCPP 232300Z 2400/2424 14004KT 3000 BR SCT010 BECMG 2406/2408 7000 NSW

Μετεωρολογικές αναφορές και προγνώσεις για περισσότερα από 4000 αεροδρόμια (δελτία METAR και TAF).

Οι διαθέσιμοι σταθμοί απεικονίζονται στο χάρτη με κίτρινες και κόκκινες κουκκίδες.

Μετακινήστε το ποντίκι πάνω από τις κουκκίδες για να δείτε το όνομα του σταθμού.

Στη συνέχεια, κάντε κλικ για να δείτε τις μετεωρολογικές αναφορές και τις προγνώσεις καιρού.

Για να αλλάξετε το χάρτη: κάντε κλικ στα πράσινα κουμπιά με τον μαύρο σταυρό για να ζουμάρετε, στο πράσινο κουμπί με την παύλα για να αφαιρέσετε το ζουμ ή στα πράσινα βέλη για να αντιπαραβάλλετε χάρτες.


METAR-TAF: